createdAt,value
2023-02-08T00:00:58.499Z,19.77
2023-02-08T00:03:27.657Z,21.60
2023-02-08T00:05:55.449Z,20.13
2023-02-08T00:08:23.205Z,19.00
2023-02-08T00:10:51.309Z,20.50
2023-02-08T00:13:19.226Z,21.03
2023-02-08T00:15:48.546Z,23.67
2023-02-08T00:18:16.435Z,20.93
2023-02-08T00:20:45.111Z,18.60
2023-02-08T00:23:13.432Z,21.50
2023-02-08T00:25:42.000Z,21.20
2023-02-08T00:28:14.138Z,21.20
2023-02-08T00:30:42.490Z,20.67
2023-02-08T00:33:11.904Z,19.33
2023-02-08T00:35:41.033Z,20.13
2023-02-08T00:38:08.957Z,21.60
2023-02-08T00:40:44.278Z,18.90
2023-02-08T00:43:13.008Z,16.57
2023-02-08T00:45:41.198Z,18.63
2023-02-08T00:48:09.031Z,16.80
2023-02-08T00:50:38.556Z,16.80
2023-02-08T00:53:06.480Z,17.63
2023-02-08T00:55:34.221Z,15.60
2023-02-08T00:58:02.004Z,13.23
2023-02-08T01:00:29.817Z,15.90
2023-02-08T01:02:57.664Z,15.50
2023-02-08T01:05:25.434Z,16.23
2023-02-08T01:07:54.571Z,15.60
2023-02-08T01:10:22.343Z,12.83
2023-02-08T01:12:50.109Z,15.37
2023-02-08T01:15:17.985Z,13.53
2023-02-08T01:17:45.794Z,16.57
2023-02-08T01:20:13.560Z,19.00
2023-02-08T01:22:41.328Z,16.50
2023-02-08T01:25:11.177Z,16.97
2023-02-08T01:27:38.954Z,15.20
2023-02-08T01:30:07.814Z,21.80
2023-02-08T01:32:35.631Z,19.23
2023-02-08T01:35:03.417Z,19.13
2023-02-08T01:37:31.259Z,18.80
2023-02-08T01:39:59.053Z,14.60
2023-02-08T01:42:28.528Z,14.53
2023-02-08T01:45:30.802Z,16.50
2023-02-08T01:48:05.220Z,15.40
2023-02-08T01:50:42.553Z,14.23
2023-02-08T01:53:10.784Z,17.47
2023-02-08T01:55:43.822Z,20.67
2023-02-08T01:58:14.050Z,17.20
2023-02-08T02:00:42.319Z,18.67
2023-02-08T02:03:10.551Z,14.80
2023-02-08T02:05:41.661Z,17.40
2023-02-08T02:08:10.478Z,17.53
2023-02-08T02:10:40.461Z,16.23
2023-02-08T02:13:11.221Z,20.67
2023-02-08T02:15:40.855Z,18.97
2023-02-08T02:18:10.152Z,15.80
2023-02-08T02:20:50.280Z,18.90
2023-02-08T02:23:56.369Z,19.33
2023-02-08T02:26:49.169Z,16.67
2023-02-08T02:29:53.994Z,18.80
2023-02-08T02:32:39.183Z,16.77
2023-02-08T02:35:13.410Z,18.13
2023-02-08T02:37:52.042Z,21.53
2023-02-08T02:40:24.325Z,20.60
2023-02-08T02:43:19.463Z,21.23
2023-02-08T02:45:53.427Z,23.40
2023-02-08T02:48:32.518Z,17.10
2023-02-08T02:51:06.571Z,19.60
2023-02-08T02:53:41.952Z,19.57
2023-02-08T02:56:16.453Z,17.87
2023-02-08T02:58:45.525Z,18.03
2023-02-08T03:01:13.727Z,20.20
2023-02-08T03:03:42.909Z,18.67
2023-02-08T03:06:15.754Z,18.77
2023-02-08T03:09:08.848Z,20.10
2023-02-08T03:11:37.933Z,22.67
2023-02-08T03:14:30.151Z,20.93
2023-02-08T03:17:08.717Z,22.53
2023-02-08T03:19:44.199Z,17.73
2023-02-08T03:22:16.568Z,15.43
2023-02-08T03:24:52.809Z,20.20
2023-02-08T03:27:28.510Z,18.67
2023-02-08T03:30:02.292Z,21.37
2023-02-08T03:32:39.550Z,19.60
2023-02-08T03:35:15.349Z,20.30
2023-02-08T03:37:49.041Z,18.00
2023-02-08T03:40:22.653Z,22.00
2023-02-08T03:42:53.186Z,18.50
2023-02-08T03:45:24.868Z,18.93
2023-02-08T03:47:55.747Z,18.50
2023-02-08T03:50:25.900Z,18.83
2023-02-08T03:52:54.636Z,19.80
2023-02-08T03:55:26.064Z,19.37
2023-02-08T03:57:58.145Z,19.60
2023-02-08T04:00:26.688Z,18.63
2023-02-08T04:02:58.331Z,18.17
2023-02-08T04:05:27.919Z,20.87
2023-02-08T04:07:55.732Z,23.77
2023-02-08T04:10:23.784Z,16.27
2023-02-08T04:12:51.792Z,21.33
2023-02-08T04:15:19.739Z,20.87
2023-02-08T04:17:47.514Z,17.90
2023-02-08T04:20:15.341Z,21.33
2023-02-08T04:22:44.469Z,21.50
2023-02-08T04:25:12.308Z,21.73
2023-02-08T04:27:40.101Z,19.23
2023-02-08T04:30:08.320Z,18.90
2023-02-08T04:32:36.127Z,23.70
2023-02-08T04:35:04.093Z,22.23
2023-02-08T04:37:31.868Z,19.30
2023-02-08T04:40:01.010Z,19.80
2023-02-08T04:42:28.796Z,20.63
2023-02-08T04:44:56.728Z,18.57
2023-02-08T04:47:24.540Z,24.70
2023-02-08T04:49:52.310Z,17.77
2023-02-08T04:52:20.102Z,16.93
2023-02-08T04:54:47.898Z,21.80
2023-02-08T04:57:17.069Z,21.90
2023-02-08T04:59:44.943Z,22.83
2023-02-08T05:02:12.729Z,22.50
2023-02-08T05:04:40.544Z,16.53
2023-02-08T05:07:08.359Z,19.27
2023-02-08T05:09:36.139Z,20.53
2023-02-08T05:12:04.082Z,22.27
2023-02-08T05:14:33.221Z,18.20
2023-02-08T05:17:00.995Z,19.17
2023-02-08T05:19:28.857Z,22.20
2023-02-08T05:21:56.668Z,21.57
2023-02-08T05:24:24.466Z,21.00
2023-02-08T05:26:52.298Z,21.90
2023-02-08T05:29:20.278Z,24.23
2023-02-08T05:31:49.516Z,21.70
2023-02-08T05:34:17.315Z,21.97
2023-02-08T05:36:45.105Z,22.13
2023-02-08T05:39:12.918Z,22.03
2023-02-08T05:41:40.704Z,22.20
2023-02-08T05:44:08.462Z,25.73
2023-02-08T05:46:38.146Z,21.33
2023-02-08T05:49:08.123Z,20.13
2023-02-08T05:51:35.935Z,23.13
2023-02-08T05:54:03.883Z,25.27
2023-02-08T05:56:31.755Z,23.67
2023-02-08T05:59:01.745Z,26.00
2023-02-08T06:01:29.821Z,23.50
2023-02-08T06:03:59.198Z,26.17
2023-02-08T06:06:28.433Z,23.60
2023-02-08T06:08:56.521Z,22.77
2023-02-08T06:11:24.378Z,22.67
2023-02-08T06:13:52.214Z,30.40
2023-02-08T06:16:20.236Z,23.83
2023-02-08T06:18:48.141Z,24.90
2023-02-08T06:21:15.998Z,25.00
2023-02-08T06:23:45.195Z,22.87
2023-02-08T06:26:13.019Z,27.87
2023-02-08T06:28:40.847Z,25.23
2023-02-08T06:31:08.608Z,33.23
2023-02-08T06:33:36.451Z,30.63
2023-02-08T06:36:04.701Z,23.83
2023-02-08T06:38:32.539Z,28.23
2023-02-08T06:41:01.640Z,29.10
2023-02-08T06:43:33.801Z,29.17
2023-02-08T06:46:04.724Z,26.97
2023-02-08T06:48:34.445Z,29.97
2023-02-08T06:51:02.371Z,28.00
2023-02-08T06:53:30.188Z,28.33
2023-02-08T06:55:57.989Z,24.90
2023-02-08T06:58:27.298Z,24.93
2023-02-08T07:00:55.067Z,27.40
2023-02-08T07:03:23.423Z,25.23
2023-02-08T07:06:04.149Z,26.00
2023-02-08T07:08:32.837Z,26.00
2023-02-08T07:11:00.625Z,30.73
2023-02-08T07:13:29.729Z,29.93
2023-02-08T07:15:57.508Z,29.50
2023-02-08T07:18:25.306Z,30.13
2023-02-08T07:20:53.087Z,26.13
2023-02-08T07:23:20.952Z,30.53
2023-02-08T07:25:58.437Z,28.50
2023-02-08T07:28:26.615Z,28.47
2023-02-08T07:30:55.933Z,31.83
2023-02-08T07:33:24.646Z,32.13
2023-02-08T07:35:52.566Z,28.10
2023-02-08T07:38:20.876Z,34.20
2023-02-08T07:40:48.831Z,32.00
2023-02-08T07:43:16.644Z,36.20
2023-02-08T07:45:44.455Z,33.20
2023-02-08T07:48:13.629Z,33.63
2023-02-08T07:50:41.654Z,33.00
2023-02-08T07:53:09.598Z,35.80
2023-02-08T07:55:37.355Z,35.47
2023-02-08T07:58:05.166Z,37.77
2023-02-08T08:00:32.971Z,30.27
2023-02-08T08:03:01.318Z,31.10
2023-02-08T08:05:30.448Z,35.27
2023-02-08T08:07:58.274Z,34.87
2023-02-08T08:10:26.078Z,32.17
2023-02-08T08:12:53.926Z,29.10
2023-02-08T08:15:21.699Z,34.17
2023-02-08T08:17:49.534Z,33.23
2023-02-08T08:20:17.782Z,32.57
2023-02-08T08:22:46.948Z,30.00
2023-02-08T08:25:15.181Z,28.20
2023-02-08T08:27:43.004Z,27.50
2023-02-08T08:30:12.355Z,31.83
2023-02-08T08:32:40.848Z,27.60
2023-02-08T08:35:09.805Z,29.73
2023-02-08T08:37:38.385Z,31.03
2023-02-08T08:40:09.597Z,32.13
2023-02-08T08:42:39.715Z,23.97
2023-02-08T08:45:08.620Z,29.07
2023-02-08T08:47:36.522Z,27.00
2023-02-08T08:50:04.434Z,23.67
2023-02-08T08:52:32.309Z,23.30
2023-02-08T08:55:00.118Z,23.50
2023-02-08T08:57:29.276Z,19.73
2023-02-08T08:59:57.062Z,19.80
2023-02-08T09:02:24.981Z,18.87
2023-02-08T09:04:52.897Z,18.67
2023-02-08T09:07:20.728Z,23.37
2023-02-08T09:09:48.589Z,17.20
2023-02-08T09:12:16.642Z,21.60
2023-02-08T09:14:45.871Z,22.40
2023-02-08T09:17:13.640Z,20.77
2023-02-08T09:19:42.555Z,17.80
2023-02-08T09:22:10.410Z,22.27
2023-02-08T09:24:38.259Z,22.80
2023-02-08T09:27:06.066Z,19.83
2023-02-08T09:29:34.337Z,18.43
2023-02-08T09:32:03.886Z,20.87
2023-02-08T09:34:31.653Z,16.97
2023-02-08T09:36:59.455Z,20.10
2023-02-08T09:39:27.503Z,25.63
2023-02-08T09:42:14.001Z,20.37
2023-02-08T09:44:51.912Z,21.10
2023-02-08T09:47:25.403Z,19.13
2023-02-08T09:49:58.672Z,17.90
2023-02-08T09:52:34.450Z,17.40
2023-02-08T09:55:22.279Z,20.40
2023-02-08T09:57:54.764Z,17.40
2023-02-08T10:00:31.329Z,16.60
2023-02-08T10:03:02.716Z,17.77
2023-02-08T10:05:35.587Z,20.93
2023-02-08T10:08:03.405Z,18.97
2023-02-08T10:10:43.924Z,16.10
2023-02-08T10:13:40.742Z,18.83
2023-02-08T10:16:19.493Z,15.87
2023-02-08T10:18:51.906Z,19.80
2023-02-08T10:21:30.693Z,15.57
2023-02-08T10:24:14.013Z,14.60
2023-02-08T10:26:46.617Z,15.93
2023-02-08T10:29:26.581Z,15.40
2023-02-08T10:32:21.332Z,15.50
2023-02-08T10:34:54.342Z,18.90
2023-02-08T10:37:28.384Z,13.33
2023-02-08T10:39:58.343Z,14.10
2023-02-08T10:42:28.705Z,11.77
2023-02-08T10:45:18.906Z,18.73
2023-02-08T10:47:55.307Z,14.00
2023-02-08T10:50:33.182Z,14.40
2023-02-08T10:53:01.050Z,13.37
2023-02-08T10:55:30.937Z,14.03
2023-02-08T10:58:01.276Z,11.77
2023-02-08T11:00:32.226Z,12.80
2023-02-08T11:03:04.729Z,17.30
2023-02-08T11:05:36.770Z,17.13
2023-02-08T11:08:09.749Z,14.00
2023-02-08T11:10:38.880Z,15.43
2023-02-08T11:13:15.841Z,12.70
2023-02-08T11:15:47.202Z,12.90
2023-02-08T11:18:22.029Z,15.43
2023-02-08T11:20:53.848Z,16.60
2023-02-08T11:23:27.584Z,13.33
2023-02-08T11:25:56.879Z,14.10
2023-02-08T11:28:30.788Z,13.07
2023-02-08T11:31:02.014Z,14.83
2023-02-08T11:33:30.877Z,13.60
2023-02-08T11:36:06.782Z,17.23
2023-02-08T11:38:37.071Z,15.77
2023-02-08T11:41:14.543Z,13.27
2023-02-08T11:43:43.160Z,15.30
2023-02-08T11:46:12.163Z,15.57
2023-02-08T11:48:44.623Z,11.87
2023-02-08T11:51:24.955Z,13.20
2023-02-08T11:53:52.960Z,14.77
2023-02-08T11:56:22.771Z,15.20
2023-02-08T11:58:58.022Z,15.50
2023-02-08T12:01:29.379Z,19.83
2023-02-08T12:04:00.456Z,15.97
2023-02-08T12:07:07.397Z,16.43
2023-02-08T12:10:05.587Z,15.80
2023-02-08T12:12:44.584Z,16.27
2023-02-08T12:15:23.944Z,16.70
2023-02-08T12:18:17.356Z,14.60
2023-02-08T12:20:46.980Z,13.67
2023-02-08T12:23:47.389Z,14.17
2023-02-08T12:26:24.273Z,13.20
2023-02-08T12:29:11.231Z,14.80
2023-02-08T12:31:53.626Z,14.07
2023-02-08T12:34:28.846Z,15.17
2023-02-08T12:37:15.826Z,13.23
2023-02-08T12:40:11.006Z,18.53
2023-02-08T12:42:55.385Z,21.30
2023-02-08T12:45:39.864Z,14.17
2023-02-08T12:48:20.093Z,14.50
2023-02-08T12:50:57.113Z,15.67
2023-02-08T12:53:31.038Z,19.00
2023-02-08T12:56:02.925Z,17.00
2023-02-08T12:58:36.611Z,20.63
2023-02-08T13:01:15.001Z,14.00
2023-02-08T13:03:49.076Z,15.67
2023-02-08T13:06:19.502Z,15.80
2023-02-08T13:08:51.347Z,17.00
2023-02-08T13:11:28.762Z,18.40
2023-02-08T13:14:03.465Z,17.50
2023-02-08T13:16:36.652Z,14.23
2023-02-08T13:19:27.035Z,15.90
2023-02-08T13:21:56.072Z,15.40
2023-02-08T13:24:30.856Z,18.70
2023-02-08T13:26:58.756Z,16.10
2023-02-08T13:29:29.415Z,19.37
2023-02-08T13:32:01.581Z,18.57
2023-02-08T13:34:33.952Z,16.23
2023-02-08T13:37:08.853Z,16.30
2023-02-08T13:39:42.461Z,15.70
2023-02-08T13:42:24.115Z,15.77
2023-02-08T13:44:56.000Z,16.67
2023-02-08T13:47:26.785Z,16.03
2023-02-08T13:49:59.882Z,13.93
2023-02-08T13:52:53.713Z,17.67
2023-02-08T13:55:42.753Z,15.77
2023-02-08T13:58:39.302Z,16.30
2023-02-08T14:01:28.641Z,15.40
2023-02-08T14:04:31.863Z,16.33
2023-02-08T14:07:13.360Z,15.90
2023-02-08T14:09:48.706Z,16.00
2023-02-08T14:12:24.996Z,16.27
2023-02-08T14:15:27.395Z,17.30
2023-02-08T14:17:59.696Z,14.57
2023-02-08T14:20:32.249Z,17.23
2023-02-08T14:23:03.236Z,16.83
2023-02-08T14:25:40.674Z,16.83
2023-02-08T14:28:22.714Z,16.00
2023-02-08T14:30:53.685Z,15.30
2023-02-08T14:33:26.941Z,15.80
2023-02-08T14:35:58.020Z,17.60
2023-02-08T14:38:54.515Z,17.00
2023-02-08T14:41:45.856Z,15.80
2023-02-08T14:44:53.305Z,16.03
2023-02-08T14:48:05.129Z,14.60
2023-02-08T14:50:41.892Z,19.03
2023-02-08T14:53:30.457Z,18.10
2023-02-08T14:56:03.590Z,15.53
2023-02-08T14:58:34.745Z,17.77
2023-02-08T15:01:06.667Z,16.63
2023-02-08T15:03:35.956Z,18.93
2023-02-08T15:06:50.392Z,16.20
2023-02-08T15:09:21.823Z,16.83
2023-02-08T15:11:54.048Z,15.80
2023-02-08T15:14:22.373Z,15.00
2023-02-08T15:16:50.708Z,18.03
2023-02-08T15:19:25.249Z,16.77
2023-02-08T15:21:54.600Z,18.17
2023-02-08T15:24:28.894Z,18.77
2023-02-08T15:26:58.338Z,14.53
2023-02-08T15:29:39.097Z,14.57
2023-02-08T15:32:15.137Z,18.30
2023-02-08T15:34:45.154Z,16.60
2023-02-08T15:37:18.364Z,15.20
2023-02-08T15:39:49.873Z,17.17
2023-02-08T15:42:19.071Z,17.40
2023-02-08T15:44:48.069Z,17.47
2023-02-08T15:47:19.680Z,20.40
2023-02-08T15:49:50.747Z,29.47
2023-02-08T15:52:21.931Z,114.90
2023-02-08T15:54:49.826Z,238.23
2023-02-08T15:57:28.077Z,169.00
2023-02-08T15:59:56.353Z,154.83
2023-02-08T16:02:28.668Z,371.97
2023-02-08T16:04:57.350Z,238.90
2023-02-08T16:07:32.124Z,50.67
2023-02-08T16:10:00.477Z,50.77
2023-02-08T16:12:29.469Z,32.13
2023-02-08T16:14:57.784Z,25.03
2023-02-08T16:17:44.542Z,22.97
2023-02-08T16:20:30.749Z,21.43
2023-02-08T16:23:02.772Z,21.50
2023-02-08T16:25:37.699Z,20.23
2023-02-08T16:28:06.928Z,23.53
2023-02-08T16:30:35.153Z,26.03
2023-02-08T16:33:10.097Z,26.73
2023-02-08T16:35:40.575Z,19.37
2023-02-08T16:38:11.584Z,25.03
2023-02-08T16:40:48.966Z,19.60
2023-02-08T16:43:19.806Z,18.47
2023-02-08T16:46:07.967Z,19.27
2023-02-08T16:48:37.420Z,17.57
2023-02-08T16:51:11.060Z,21.07
2023-02-08T16:53:42.586Z,18.50
2023-02-08T16:56:11.909Z,19.70
2023-02-08T16:58:40.189Z,19.57
2023-02-08T17:01:10.864Z,21.30
2023-02-08T17:03:38.729Z,23.10
2023-02-08T17:06:07.363Z,21.57
2023-02-08T17:08:36.730Z,18.20
2023-02-08T17:11:06.044Z,21.50
2023-02-08T17:13:33.824Z,22.37
2023-02-08T17:16:01.970Z,20.37
2023-02-08T17:18:33.210Z,19.70
2023-02-08T17:21:02.480Z,25.30
2023-02-08T17:23:30.326Z,22.00
2023-02-08T17:25:58.491Z,19.83
2023-02-08T17:28:27.978Z,19.80
2023-02-08T17:30:55.908Z,21.47
2023-02-08T17:33:23.770Z,24.90
2023-02-08T17:35:52.933Z,21.70
2023-02-08T17:38:21.362Z,22.13
2023-02-08T17:40:49.539Z,21.60
2023-02-08T17:43:17.755Z,22.57
2023-02-08T17:45:47.377Z,18.00
2023-02-08T17:48:15.471Z,22.87
2023-02-08T17:50:47.719Z,25.07
2023-02-08T17:53:15.864Z,24.80
2023-02-08T17:55:46.831Z,17.90
2023-02-08T17:58:15.028Z,22.50
2023-02-08T18:00:42.987Z,24.13
2023-02-08T18:03:12.398Z,23.77
2023-02-08T18:05:40.247Z,20.47
2023-02-08T18:08:08.061Z,22.67
2023-02-08T18:10:36.355Z,20.00
2023-02-08T18:13:04.186Z,22.73
2023-02-08T18:15:32.029Z,27.17
2023-02-08T18:17:59.958Z,24.50
2023-02-08T18:20:29.277Z,17.90
2023-02-08T18:22:57.080Z,23.50
2023-02-08T18:25:25.122Z,19.60
2023-02-08T18:27:52.962Z,24.47
2023-02-08T18:30:21.087Z,21.17
2023-02-08T18:32:48.880Z,23.50
2023-02-08T18:35:16.665Z,26.87
2023-02-08T18:37:49.284Z,23.60
2023-02-08T18:40:18.335Z,21.17
2023-02-08T18:42:46.097Z,23.00
2023-02-08T18:45:13.926Z,20.20
2023-02-08T18:47:41.745Z,23.37
2023-02-08T18:50:10.259Z,26.30
2023-02-08T18:52:38.036Z,20.33
2023-02-08T18:55:07.757Z,22.10
2023-02-08T18:57:38.777Z,21.70
2023-02-08T19:00:07.838Z,24.90
2023-02-08T19:02:36.544Z,17.30
2023-02-08T19:05:06.589Z,20.30
2023-02-08T19:07:35.721Z,25.37
2023-02-08T19:10:03.546Z,23.60
2023-02-08T19:12:32.951Z,24.70
2023-02-08T19:15:00.744Z,18.40
2023-02-08T19:17:28.681Z,27.00
2023-02-08T19:19:56.452Z,24.13
2023-02-08T19:22:24.268Z,25.60
2023-02-08T19:24:52.262Z,23.63
2023-02-08T19:27:20.186Z,27.00
2023-02-08T19:29:51.485Z,30.27
2023-02-08T19:32:19.303Z,28.07
2023-02-08T19:34:47.102Z,27.70
2023-02-08T19:37:14.930Z,25.70
2023-02-08T19:39:42.727Z,23.03
2023-02-08T19:42:10.543Z,24.40
2023-02-08T19:44:38.469Z,22.97
2023-02-08T19:47:07.645Z,23.53
2023-02-08T19:49:35.438Z,26.03
2023-02-08T19:52:03.214Z,24.83
2023-02-08T19:54:31.015Z,26.07
2023-02-08T19:56:58.810Z,26.13
2023-02-08T19:59:28.040Z,29.50
2023-02-08T20:01:56.233Z,27.23
2023-02-08T20:04:25.448Z,27.13
2023-02-08T20:06:54.408Z,26.07
2023-02-08T20:09:22.658Z,25.33
2023-02-08T20:11:57.237Z,26.67
2023-02-08T20:14:25.754Z,22.63
2023-02-08T20:16:53.848Z,22.20
2023-02-08T20:19:21.776Z,22.13
2023-02-08T20:21:50.891Z,24.17
2023-02-08T20:24:18.841Z,21.80
2023-02-08T20:26:47.990Z,20.37
2023-02-08T20:29:16.839Z,26.70
2023-02-08T20:31:47.547Z,21.53
2023-02-08T20:34:18.553Z,22.23
2023-02-08T20:37:05.344Z,21.37
2023-02-08T20:39:36.051Z,23.07
2023-02-08T20:42:03.915Z,26.80
2023-02-08T20:44:32.418Z,26.20
2023-02-08T20:47:00.512Z,22.23
2023-02-08T20:49:29.382Z,26.30
2023-02-08T20:51:57.317Z,28.40
2023-02-08T20:54:25.593Z,26.80
2023-02-08T20:56:55.218Z,30.07
2023-02-08T20:59:23.568Z,26.90
2023-02-08T21:01:51.850Z,21.50
2023-02-08T21:04:23.161Z,29.13
2023-02-08T21:06:51.879Z,21.23
2023-02-08T21:09:20.943Z,31.53
2023-02-08T21:11:49.456Z,24.83
2023-02-08T21:14:21.164Z,29.37
2023-02-08T21:16:50.871Z,26.97
2023-02-08T21:19:20.433Z,26.00
2023-02-08T21:21:51.743Z,24.73
2023-02-08T21:24:19.841Z,24.40
2023-02-08T21:26:47.617Z,25.13
2023-02-08T21:29:15.413Z,21.83
2023-02-08T21:31:44.783Z,31.33
2023-02-08T21:34:12.887Z,19.60
2023-02-08T21:36:40.670Z,21.10
2023-02-08T21:39:08.743Z,23.67
2023-02-08T21:41:37.702Z,25.20
2023-02-08T21:44:08.075Z,20.30
2023-02-08T21:46:36.224Z,24.03
2023-02-08T21:49:22.891Z,25.90
2023-02-08T21:52:08.454Z,23.33
2023-02-08T21:54:42.812Z,27.90
2023-02-08T21:57:12.948Z,25.00
2023-02-08T21:59:41.085Z,25.87
2023-02-08T22:02:11.747Z,24.40
2023-02-08T22:04:41.967Z,23.40
2023-02-08T22:07:09.739Z,27.33
2023-02-08T22:09:39.633Z,21.57
2023-02-08T22:12:07.560Z,23.00
2023-02-08T22:14:35.767Z,25.63
2023-02-08T22:17:03.775Z,27.37
2023-02-08T22:19:31.551Z,22.83
2023-02-08T22:22:02.227Z,22.73
2023-02-08T22:24:30.015Z,25.27
2023-02-08T22:26:57.768Z,24.73
2023-02-08T22:29:25.525Z,23.70
2023-02-08T22:31:53.579Z,23.50
2023-02-08T22:34:21.492Z,23.73
2023-02-08T22:36:49.275Z,20.63
2023-02-08T22:39:18.402Z,22.53
2023-02-08T22:41:46.283Z,21.47
2023-02-08T22:44:14.102Z,22.97
2023-02-08T22:46:41.977Z,28.10
2023-02-08T22:49:09.844Z,25.63
2023-02-08T22:51:37.665Z,23.63
2023-02-08T22:54:05.674Z,25.20
2023-02-08T22:56:34.805Z,29.80
2023-02-08T22:59:02.565Z,25.37
2023-02-08T23:01:30.379Z,26.67
2023-02-08T23:04:00.316Z,26.20
2023-02-08T23:06:28.338Z,21.43
2023-02-08T23:08:56.373Z,26.10
2023-02-08T23:11:24.311Z,26.40
2023-02-08T23:13:53.434Z,23.43
2023-02-08T23:16:21.432Z,23.30
2023-02-08T23:18:49.292Z,25.97
2023-02-08T23:21:19.258Z,24.40
2023-02-08T23:23:48.512Z,22.37
2023-02-08T23:26:18.604Z,24.70
2023-02-08T23:28:47.145Z,23.80
2023-02-08T23:31:16.585Z,28.40
2023-02-08T23:33:44.945Z,24.50
2023-02-08T23:36:14.963Z,24.87
2023-02-08T23:38:43.599Z,21.40
2023-02-08T23:41:17.637Z,22.70
2023-02-08T23:43:45.462Z,25.43
2023-02-08T23:46:17.918Z,20.80
2023-02-08T23:48:47.564Z,18.90
2023-02-08T23:51:16.936Z,20.33
2023-02-08T23:53:44.772Z,23.33
2023-02-08T23:56:17.042Z,21.50
2023-02-08T23:58:46.641Z,24.30
